map of YQU home
YQU - Airport
Location
City:  Grande Prairie, Alberta, Canada
Name:Grande Prairie Airport
ICAO:CYQU
IATA:YQU

Details
Type:Airport (Airfield)
Use:Public/Civil
Latitude:5510'55"N (55.181944)
Longitude:11853'14"W (-118.887221)
Elevation:2196 ft (669 m)
Variation:16.78E (WMM2015 magnetic declination)
-0.20 annual change
Runways:2
Longest:8502 ft (2591 m), paved

Time
Time Zone:UTC-7 (DST-6)
Local Time:

Weather
METAR:CYQU 171300Z 24019G24KT 25SM BKN120 02/M03 A2944 RMK AC5 SLP002
TAF:CYQU 171238Z 1713/1801 25015G25KT P6SM FEW100
BECMG 1713/1715 25020G30KT
BECMG 1720/1722 25015G25KT
RMK NXT FCST BY 171900Z

Related Locations
Nearby:
Farthest:YWKS: 10624 mi / 17098 km
Wilkins Runway (Casey), Upper Peterson Glacier, AQ

Find:

   beyond  
but within

Other Information
Maps:
NOTAMs:
Links:
Sources:

  
flag of Canada
flag of Alberta
  

Airport Diagram

Airport diagram for YQU

Airport diagram PDF

Sectional Chart

Flight Planning
at skyvector.com

Satellite Image

Google Maps Satellite view

 

Copyright © 2004-2017 Karl L. Swartz. All rights reserved.
The Great Circle Mapper name and logo are trademarks of the Great Circle Mapper.
All other trademarks mentioned herein belong to their respective owners.
Please see credits for attibutions and further copyright information.

  Follow gcmap on Facebook Follow gcmap on Twitter Follow gcmap on Google+ GCmap on LinkedIn

hCard Microformat

Geo Microformat